createdAt,value
2022-09-14T00:01:32.950Z,11.88
2022-09-14T00:04:06.132Z,12.00
2022-09-14T00:06:33.480Z,11.88
2022-09-14T00:09:01.678Z,13.13
2022-09-14T00:11:32.041Z,12.60
2022-09-14T00:14:01.539Z,13.00
2022-09-14T00:16:34.822Z,13.95
2022-09-14T00:19:06.483Z,13.45
2022-09-14T00:21:38.950Z,14.85
2022-09-14T00:24:07.506Z,13.48
2022-09-14T00:26:35.621Z,12.07
2022-09-14T00:29:05.191Z,13.27
2022-09-14T00:31:36.046Z,15.27
2022-09-14T00:34:05.116Z,11.80
2022-09-14T00:36:34.223Z,12.20
2022-09-14T00:39:01.965Z,10.48
2022-09-14T00:41:34.149Z,12.02
2022-09-14T00:44:06.013Z,12.77
2022-09-14T00:46:48.347Z,11.67
2022-09-14T00:49:18.088Z,11.82
2022-09-14T00:51:49.745Z,10.55
2022-09-14T00:54:17.520Z,13.57
2022-09-14T00:56:46.461Z,13.77
2022-09-14T00:59:18.561Z,11.00
2022-09-14T01:01:46.161Z,14.43
2022-09-14T01:04:13.869Z,12.07
2022-09-14T01:06:48.345Z,13.13
2022-09-14T01:09:40.381Z,13.85
2022-09-14T01:12:14.118Z,15.55
2022-09-14T01:15:02.437Z,16.48
2022-09-14T01:18:08.555Z,13.60
2022-09-14T01:20:40.319Z,15.45
2022-09-14T01:23:46.303Z,16.30
2022-09-14T01:26:18.874Z,16.48
2022-09-14T01:28:49.217Z,16.58
2022-09-14T01:31:39.055Z,17.67
2022-09-14T01:34:13.685Z,18.98
2022-09-14T01:36:43.946Z,18.20
2022-09-14T01:39:12.482Z,16.70
2022-09-14T01:41:40.118Z,18.00
2022-09-14T01:44:12.099Z,19.08
2022-09-14T01:47:01.856Z,20.33
2022-09-14T01:49:33.534Z,18.23
2022-09-14T01:52:23.388Z,18.27
2022-09-14T01:55:28.143Z,19.92
2022-09-14T01:58:05.709Z,22.52
2022-09-14T02:00:33.843Z,20.13
2022-09-14T02:03:07.909Z,19.48
2022-09-14T02:05:41.413Z,21.35
2022-09-14T02:08:09.170Z,19.20
2022-09-14T02:10:36.602Z,20.60
2022-09-14T02:13:03.977Z,24.05
2022-09-14T02:15:31.838Z,27.98
2022-09-14T02:17:59.210Z,26.05
2022-09-14T02:20:37.773Z,25.02
2022-09-14T02:23:06.558Z,28.95
2022-09-14T02:25:37.460Z,31.98
2022-09-14T02:28:04.861Z,30.98
2022-09-14T02:30:42.489Z,39.58
2022-09-14T02:33:16.530Z,39.38
2022-09-14T02:35:59.690Z,42.70
2022-09-14T02:38:40.998Z,36.47
2022-09-14T02:41:22.941Z,34.80
2022-09-14T02:44:16.022Z,35.85
2022-09-14T02:47:03.758Z,39.65
2022-09-14T02:49:37.157Z,41.13
2022-09-14T02:52:18.520Z,40.40
2022-09-14T02:54:54.254Z,43.65
2022-09-14T02:57:22.025Z,46.40
2022-09-14T02:59:49.540Z,45.83
2022-09-14T03:02:16.795Z,47.20
2022-09-14T03:04:44.519Z,53.75
2022-09-14T03:07:11.979Z,49.53
2022-09-14T03:09:39.369Z,54.67
2022-09-14T03:12:06.898Z,61.50
2022-09-14T03:14:34.309Z,60.55
2022-09-14T03:17:01.806Z,60.85
2022-09-14T03:19:29.463Z,56.00
2022-09-14T03:21:56.792Z,60.83
2022-09-14T03:24:24.140Z,57.92
2022-09-14T03:26:52.396Z,58.80
2022-09-14T03:29:19.644Z,53.15
2022-09-14T03:31:46.962Z,55.15
2022-09-14T03:34:14.579Z,55.25
2022-09-14T03:36:41.800Z,54.85
2022-09-14T03:39:09.408Z,54.75
2022-09-14T03:41:37.050Z,57.50
2022-09-14T03:44:04.506Z,57.13
2022-09-14T03:46:31.756Z,56.92
2022-09-14T03:48:59.235Z,51.92
2022-09-14T03:51:26.696Z,50.53
2022-09-14T03:53:54.633Z,54.67
2022-09-14T03:56:23.862Z,52.78
2022-09-14T03:58:51.549Z,57.33
2022-09-14T04:01:20.934Z,55.13
2022-09-14T04:03:49.143Z,59.95
2022-09-14T04:06:17.494Z,54.67
2022-09-14T04:08:46.293Z,60.25
2022-09-14T04:11:22.978Z,58.92
2022-09-14T04:13:51.481Z,60.85
2022-09-14T04:16:21.152Z,53.22
2022-09-14T04:18:49.013Z,54.80
2022-09-14T04:21:19.703Z,55.20
2022-09-14T04:26:35.533Z,63.20
2022-09-14T04:29:03.730Z,53.50
2022-09-14T04:31:31.414Z,61.65
2022-09-14T04:33:59.290Z,57.78
2022-09-14T04:36:29.589Z,64.15
2022-09-14T04:38:59.979Z,66.57
2022-09-14T04:41:28.698Z,74.85
2022-09-14T04:43:56.818Z,65.05
2022-09-14T04:46:27.813Z,68.40
2022-09-14T04:48:55.867Z,67.38
2022-09-14T04:51:25.601Z,66.68
2022-09-14T04:53:54.584Z,67.93
2022-09-14T04:56:24.072Z,67.38
2022-09-14T04:58:54.152Z,63.45
2022-09-14T05:01:24.195Z,69.22
2022-09-14T05:03:53.897Z,66.30
2022-09-14T05:06:23.818Z,61.03
2022-09-14T05:08:52.741Z,56.10
2022-09-14T05:11:22.990Z,53.95
2022-09-14T05:13:51.311Z,54.92
2022-09-14T05:16:23.910Z,54.88
2022-09-14T05:18:54.803Z,57.58
2022-09-14T05:21:23.728Z,42.47
2022-09-14T05:24:02.516Z,38.70
2022-09-14T05:26:31.503Z,33.75
2022-09-14T05:29:00.775Z,37.05
2022-09-14T05:31:29.351Z,40.25
2022-09-14T05:33:57.537Z,36.05
2022-09-14T05:36:25.628Z,33.97
2022-09-14T05:38:53.123Z,39.67
2022-09-14T05:41:21.060Z,42.20
2022-09-14T05:43:48.734Z,38.60
2022-09-14T05:46:20.458Z,36.38
2022-09-14T05:48:51.821Z,41.63
2022-09-14T05:51:23.775Z,38.90
2022-09-14T05:53:56.978Z,43.50
2022-09-14T05:58:53.018Z,43.72
2022-09-14T06:01:22.987Z,46.72
2022-09-14T06:03:51.063Z,47.25
2022-09-14T06:06:20.034Z,50.30
2022-09-14T06:08:52.489Z,49.47
2022-09-14T06:11:25.435Z,53.50
2022-09-14T06:13:54.630Z,54.20
2022-09-14T06:16:23.981Z,51.10
2022-09-14T06:18:51.666Z,51.45
2022-09-14T06:21:20.470Z,56.63
2022-09-14T06:23:49.456Z,57.35
2022-09-14T06:26:17.277Z,58.10
2022-09-14T06:28:44.714Z,55.42
2022-09-14T06:31:14.067Z,59.35
2022-09-14T06:33:45.800Z,60.55
2022-09-14T06:36:16.183Z,52.28
2022-09-14T06:38:44.573Z,57.95
2022-09-14T06:41:15.160Z,52.65
2022-09-14T06:43:43.347Z,54.55
2022-09-14T06:46:25.512Z,50.75
2022-09-14T06:48:59.960Z,56.25
2022-09-14T06:51:36.188Z,55.05
2022-09-14T06:54:05.317Z,51.35
2022-09-14T06:56:35.661Z,52.67
2022-09-14T06:59:03.778Z,50.25
2022-09-14T07:01:31.753Z,51.20
2022-09-14T07:04:00.470Z,45.08
2022-09-14T07:06:31.512Z,49.15
2022-09-14T07:08:59.648Z,43.75
2022-09-14T07:11:27.919Z,43.88
2022-09-14T07:13:58.921Z,43.85
2022-09-14T07:16:27.870Z,38.42
2022-09-14T07:19:00.542Z,39.63
2022-09-14T07:21:29.142Z,37.03
2022-09-14T07:23:56.565Z,33.80
2022-09-14T07:26:29.939Z,36.47
2022-09-14T07:29:00.016Z,37.38
2022-09-14T07:31:31.950Z,32.95
2022-09-14T07:34:02.057Z,33.60
2022-09-14T07:36:34.613Z,31.42
2022-09-14T07:39:08.040Z,31.52
2022-09-14T07:41:36.349Z,28.63
2022-09-14T07:44:06.447Z,23.02
2022-09-14T07:46:39.230Z,25.05
2022-09-14T07:49:07.720Z,20.85
2022-09-14T07:51:36.995Z,23.85
2022-09-14T07:54:06.905Z,19.73
2022-09-14T07:56:35.363Z,22.83
2022-09-14T07:59:30.933Z,20.95
2022-09-14T08:01:51.951Z,20.15
2022-09-14T08:04:19.324Z,21.67
2022-09-14T08:06:46.576Z,16.75
2022-09-14T08:09:14.568Z,17.25
2022-09-14T08:11:42.641Z,15.15
2022-09-14T08:14:11.823Z,15.07
2022-09-14T08:16:40.770Z,14.60
2022-09-14T08:19:13.202Z,17.75
2022-09-14T08:21:46.297Z,18.05
2022-09-14T08:24:19.369Z,14.45
2022-09-14T08:26:48.285Z,20.65
2022-09-14T08:29:17.358Z,13.10
2022-09-14T08:31:45.979Z,12.65
2022-09-14T08:34:15.241Z,12.27
2022-09-14T08:36:43.721Z,17.85
2022-09-14T08:39:12.993Z,12.00
2022-09-14T08:41:43.998Z,11.18
2022-09-14T08:44:22.066Z,15.55
2022-09-14T08:46:54.547Z,15.07
2022-09-14T08:49:43.560Z,14.77
2022-09-14T08:52:22.898Z,12.43
2022-09-14T08:54:54.446Z,12.00
2022-09-14T08:57:39.793Z,13.27
2022-09-14T09:00:13.694Z,14.85
2022-09-14T09:02:56.967Z,9.85
2022-09-14T09:05:43.063Z,15.20
2022-09-14T09:08:49.155Z,11.88
2022-09-14T09:11:20.264Z,10.82
2022-09-14T09:13:49.487Z,10.70
2022-09-14T09:16:20.403Z,13.13
2022-09-14T09:18:57.091Z,11.52
2022-09-14T09:21:29.806Z,11.10
2022-09-14T09:24:16.978Z,8.85
2022-09-14T09:26:44.629Z,8.55
2022-09-14T09:29:12.294Z,13.25
2022-09-14T09:31:59.782Z,10.70
2022-09-14T09:34:53.441Z,7.72
2022-09-14T09:37:31.938Z,8.57
2022-09-14T09:40:00.463Z,11.10
2022-09-14T09:42:28.542Z,9.20
2022-09-14T09:45:03.201Z,9.30
2022-09-14T09:47:37.370Z,8.43
2022-09-14T09:50:26.602Z,6.32
2022-09-14T09:53:02.069Z,10.52
2022-09-14T09:55:38.603Z,12.30
2022-09-14T09:58:32.661Z,7.93
2022-09-14T10:01:19.366Z,7.68
2022-09-14T10:04:03.207Z,7.40
2022-09-14T10:06:31.495Z,6.53
2022-09-14T10:08:59.991Z,6.60
2022-09-14T10:11:38.098Z,9.02
2022-09-14T10:14:06.798Z,4.03
2022-09-14T10:16:39.448Z,5.45
2022-09-14T10:19:14.891Z,6.63
2022-09-14T10:22:24.276Z,7.40
2022-09-14T10:25:00.272Z,8.52
2022-09-14T10:27:53.043Z,7.60
2022-09-14T10:30:23.825Z,8.63
2022-09-14T10:33:02.661Z,6.95
2022-09-14T10:36:07.420Z,6.05
2022-09-14T10:38:58.717Z,8.05
2022-09-14T10:41:39.228Z,9.57
2022-09-14T10:44:37.834Z,8.35
2022-09-14T10:47:43.355Z,6.47
2022-09-14T10:50:32.685Z,9.73
2022-09-14T10:53:31.766Z,8.52
2022-09-14T10:56:01.272Z,7.20
2022-09-14T10:58:44.603Z,5.78
2022-09-14T11:01:21.012Z,12.90
2022-09-14T11:04:26.579Z,10.23
2022-09-14T11:06:56.905Z,10.10
2022-09-14T11:09:45.794Z,7.13
2022-09-14T11:12:21.831Z,7.25
2022-09-14T11:15:31.692Z,7.78
2022-09-14T11:18:17.968Z,5.22
2022-09-14T11:20:58.725Z,6.50
2022-09-14T11:23:32.198Z,8.57
2022-09-14T11:26:15.582Z,5.95
2022-09-14T11:28:48.552Z,5.18
2022-09-14T11:31:37.856Z,6.65
2022-09-14T11:34:28.599Z,10.43
2022-09-14T11:37:00.285Z,9.07
2022-09-14T11:39:38.247Z,6.13
2022-09-14T11:42:18.989Z,4.90
2022-09-14T11:44:59.802Z,5.63
2022-09-14T11:47:28.644Z,4.88
2022-09-14T11:50:03.625Z,4.05
2022-09-14T11:52:33.301Z,7.35
2022-09-14T11:55:02.282Z,4.35
2022-09-14T11:57:33.630Z,3.95
2022-09-14T12:00:06.861Z,7.43
2022-09-14T12:02:37.995Z,7.10
2022-09-14T12:05:08.390Z,5.47
2022-09-14T12:07:48.050Z,3.50
2022-09-14T12:10:15.719Z,4.65
2022-09-14T12:13:03.983Z,4.55
2022-09-14T12:15:38.439Z,4.93
2022-09-14T12:18:11.903Z,3.83
2022-09-14T12:20:49.241Z,4.78
2022-09-14T12:23:28.066Z,3.50
2022-09-14T12:26:18.073Z,9.57
2022-09-14T12:28:48.828Z,4.18
2022-09-14T12:31:39.606Z,3.10
2022-09-14T12:34:32.140Z,3.70
2022-09-14T12:37:21.596Z,3.60
2022-09-14T12:40:26.935Z,8.02
2022-09-14T12:42:54.966Z,4.00
2022-09-14T12:45:48.063Z,4.43
2022-09-14T12:48:52.581Z,3.60
2022-09-14T12:51:31.969Z,4.97
2022-09-14T12:54:21.642Z,6.10
2022-09-14T12:57:23.790Z,4.20
2022-09-14T13:00:13.686Z,4.40
2022-09-14T13:03:19.648Z,3.00
2022-09-14T13:05:47.418Z,5.05
2022-09-14T13:08:21.424Z,5.15
2022-09-14T13:10:51.310Z,5.75
2022-09-14T13:13:24.221Z,5.60
2022-09-14T13:15:57.514Z,5.22
2022-09-14T13:18:30.759Z,4.38
2022-09-14T13:21:19.580Z,5.82
2022-09-14T13:23:47.445Z,5.15
2022-09-14T13:26:20.439Z,6.90
2022-09-14T13:28:49.552Z,3.05
2022-09-14T13:31:28.740Z,3.47
2022-09-14T13:33:56.588Z,3.95
2022-09-14T13:36:29.933Z,5.03
2022-09-14T13:41:26.288Z,4.35
2022-09-14T13:43:55.496Z,3.95
2022-09-14T13:46:24.762Z,4.68
2022-09-14T13:48:52.768Z,6.82
2022-09-14T13:51:25.943Z,7.18
2022-09-14T13:53:56.487Z,6.72
2022-09-14T13:56:33.335Z,5.90
2022-09-14T13:59:11.379Z,4.80
2022-09-14T14:01:40.762Z,6.93
2022-09-14T14:04:27.701Z,6.05
2022-09-14T14:07:31.109Z,6.30
2022-09-14T14:12:30.009Z,4.15
2022-09-14T14:15:03.003Z,5.97
2022-09-14T14:17:30.565Z,4.30
2022-09-14T14:20:01.447Z,4.97
2022-09-14T14:22:32.799Z,5.70
2022-09-14T14:25:16.255Z,8.45
2022-09-14T14:30:20.295Z,4.22
2022-09-14T14:32:55.097Z,3.92
2022-09-14T14:35:26.579Z,3.10
2022-09-14T14:37:55.022Z,6.88
2022-09-14T14:40:23.507Z,6.32
2022-09-14T14:42:51.809Z,4.57
2022-09-14T14:45:22.176Z,5.05
2022-09-14T14:47:53.236Z,5.00
2022-09-14T14:50:23.673Z,3.72
2022-09-14T14:52:51.946Z,6.10
2022-09-14T14:55:21.283Z,5.55
2022-09-14T14:57:49.826Z,3.65
2022-09-14T15:00:23.669Z,5.45
2022-09-14T15:02:51.817Z,3.95
2022-09-14T15:05:19.822Z,6.50
2022-09-14T15:07:50.151Z,5.25
2022-09-14T15:10:18.418Z,5.13
2022-09-14T15:12:46.599Z,4.07
2022-09-14T15:15:19.596Z,3.78
2022-09-14T15:17:47.497Z,4.03
2022-09-14T15:20:15.554Z,5.43
2022-09-14T15:22:42.969Z,4.93
2022-09-14T15:25:12.418Z,4.43
2022-09-14T15:27:41.012Z,5.07
2022-09-14T15:30:09.519Z,4.47
2022-09-14T15:32:37.135Z,5.65
2022-09-14T15:35:10.624Z,3.83
2022-09-14T15:37:38.278Z,4.72
2022-09-14T15:40:06.348Z,2.83
2022-09-14T15:42:33.857Z,3.58
2022-09-14T15:45:01.683Z,8.20
2022-09-14T15:47:32.824Z,5.75
2022-09-14T15:50:03.387Z,3.80
2022-09-14T15:52:31.184Z,2.67
2022-09-14T15:54:58.595Z,4.15
2022-09-14T15:57:26.305Z,6.78
2022-09-14T15:59:54.946Z,8.45
2022-09-14T16:02:22.312Z,5.65
2022-09-14T16:04:50.124Z,4.60
2022-09-14T16:07:17.531Z,5.03
2022-09-14T16:09:45.947Z,3.03
2022-09-14T16:12:13.961Z,9.82
2022-09-14T16:14:41.412Z,7.63
2022-09-14T16:17:11.357Z,9.68
2022-09-14T16:19:38.912Z,3.42
2022-09-14T16:22:06.476Z,5.95
2022-09-14T16:24:34.166Z,10.20
2022-09-14T16:27:02.116Z,9.25
2022-09-14T16:29:29.426Z,7.97
2022-09-14T16:31:57.248Z,5.82
2022-09-14T16:34:29.481Z,5.95
2022-09-14T16:36:58.898Z,7.55
2022-09-14T16:39:29.854Z,10.68
2022-09-14T16:41:57.557Z,9.07
2022-09-14T16:44:26.597Z,7.05
2022-09-14T16:46:57.770Z,6.40
2022-09-14T16:49:27.973Z,8.75
2022-09-14T16:52:00.827Z,7.43
2022-09-14T16:54:30.104Z,4.60
2022-09-14T16:56:59.458Z,5.28
2022-09-14T16:59:27.315Z,10.98
2022-09-14T17:01:55.648Z,10.75
2022-09-14T17:04:24.712Z,7.53
2022-09-14T17:06:53.359Z,11.82
2022-09-14T17:09:32.664Z,7.43
2022-09-14T17:12:00.629Z,6.75
2022-09-14T17:14:33.327Z,9.23
2022-09-14T17:17:01.275Z,10.70
2022-09-14T17:19:29.079Z,7.30
2022-09-14T17:21:57.418Z,6.07
2022-09-14T17:24:26.134Z,7.32
2022-09-14T17:26:53.398Z,8.85
2022-09-14T17:29:21.227Z,9.40
2022-09-14T17:31:48.932Z,14.30
2022-09-14T17:34:17.200Z,10.48
2022-09-14T17:36:45.667Z,12.60
2022-09-14T17:39:14.430Z,11.40
2022-09-14T17:41:42.972Z,11.48
2022-09-14T17:44:12.817Z,12.00
2022-09-14T17:46:49.641Z,11.32
2022-09-14T17:49:22.011Z,10.70
2022-09-14T17:51:50.948Z,19.30
2022-09-14T17:54:19.301Z,22.35
2022-09-14T17:56:47.429Z,11.40
2022-09-14T17:59:20.316Z,10.10
2022-09-14T18:01:49.123Z,9.10
2022-09-14T18:04:17.885Z,9.45
2022-09-14T18:06:47.832Z,9.10
2022-09-14T18:09:18.773Z,9.27
2022-09-14T18:11:47.017Z,9.95
2022-09-14T18:14:15.137Z,11.55
2022-09-14T18:16:43.189Z,12.15
2022-09-14T18:19:11.889Z,7.68
2022-09-14T18:21:39.322Z,8.32
2022-09-14T18:24:07.032Z,10.35
2022-09-14T18:26:34.697Z,8.55
2022-09-14T18:29:03.795Z,9.07
2022-09-14T18:31:31.337Z,14.20
2022-09-14T18:34:00.939Z,12.00
2022-09-14T18:36:29.950Z,10.45
2022-09-14T18:38:58.600Z,13.35
2022-09-14T18:41:29.744Z,10.93
2022-09-14T18:43:58.498Z,17.33
2022-09-14T18:46:28.359Z,12.70
2022-09-14T18:48:59.414Z,18.83
2022-09-14T18:51:28.481Z,9.95
2022-09-14T18:54:05.139Z,9.88
2022-09-14T18:56:34.637Z,9.82
2022-09-14T18:59:03.573Z,10.27
2022-09-14T19:01:31.587Z,14.23
2022-09-14T19:03:59.404Z,14.52
2022-09-14T19:06:26.831Z,10.25
2022-09-14T19:08:54.798Z,18.27
2022-09-14T19:11:27.122Z,16.10
2022-09-14T19:13:59.950Z,15.85
2022-09-14T19:18:56.077Z,13.93
2022-09-14T19:21:26.305Z,14.50
2022-09-14T19:24:14.785Z,14.45
2022-09-14T19:26:47.565Z,12.40
2022-09-14T19:29:17.849Z,12.55
2022-09-14T19:31:48.579Z,15.65
2022-09-14T19:34:16.514Z,14.13
2022-09-14T19:36:44.532Z,13.52
2022-09-14T19:39:11.989Z,11.55
2022-09-14T19:41:40.178Z,16.08
2022-09-14T19:44:09.091Z,17.73
2022-09-14T19:46:39.774Z,13.70
2022-09-14T19:49:26.358Z,15.23
2022-09-14T19:51:54.152Z,12.90
2022-09-14T19:54:23.016Z,11.15
2022-09-14T19:56:50.586Z,15.38
2022-09-14T19:59:18.293Z,12.10
2022-09-14T20:01:46.373Z,20.73
2022-09-14T20:04:15.922Z,19.02
2022-09-14T20:06:44.934Z,16.55
2022-09-14T20:09:23.873Z,12.77
2022-09-14T20:11:53.098Z,15.85
2022-09-14T20:14:24.175Z,15.15
2022-09-14T20:16:56.847Z,15.93
2022-09-14T20:19:27.417Z,14.90
2022-09-14T20:21:55.344Z,13.10
2022-09-14T20:24:25.945Z,11.90
2022-09-14T20:26:56.076Z,12.45
2022-09-14T20:29:24.743Z,17.88
2022-09-14T20:31:52.586Z,13.23
2022-09-14T20:34:21.279Z,11.65
2022-09-14T20:36:49.941Z,12.57
2022-09-14T20:39:18.771Z,9.15
2022-09-14T20:41:46.538Z,13.20
2022-09-14T20:44:14.441Z,11.65
2022-09-14T20:46:44.120Z,11.20
2022-09-14T20:49:14.360Z,12.32
2022-09-14T20:51:42.875Z,11.60
2022-09-14T20:54:12.792Z,12.88
2022-09-14T20:56:41.024Z,10.23
2022-09-14T20:59:11.823Z,11.50
2022-09-14T21:01:41.751Z,12.82
2022-09-14T21:04:12.265Z,13.02
2022-09-14T21:06:45.615Z,12.02
2022-09-14T21:09:14.415Z,17.20
2022-09-14T21:11:42.869Z,11.57
2022-09-14T21:14:10.348Z,13.95
2022-09-14T21:16:43.160Z,9.32
2022-09-14T21:19:16.444Z,12.40
2022-09-14T21:21:44.638Z,17.02
2022-09-14T21:24:13.642Z,11.43
2022-09-14T21:26:43.113Z,13.23
2022-09-14T21:29:14.345Z,11.32
2022-09-14T21:31:42.178Z,13.18
2022-09-14T21:34:10.917Z,15.80
2022-09-14T21:36:41.479Z,10.73
2022-09-14T21:39:23.309Z,11.23
2022-09-14T21:41:58.053Z,15.02
2022-09-14T21:44:33.849Z,10.27
2022-09-14T21:47:02.441Z,12.57
2022-09-14T21:49:30.198Z,12.48
2022-09-14T21:51:57.554Z,11.35
2022-09-14T21:54:25.349Z,16.77
2022-09-14T21:56:53.033Z,13.00
2022-09-14T21:59:21.933Z,16.00
2022-09-14T22:01:49.842Z,13.32
2022-09-14T22:04:19.893Z,13.35
2022-09-14T22:06:48.043Z,12.82
2022-09-14T22:09:17.176Z,13.65
2022-09-14T22:11:45.119Z,15.73
2022-09-14T22:14:15.978Z,13.55
2022-09-14T22:16:43.803Z,11.35
2022-09-14T22:19:16.585Z,16.65
2022-09-14T22:21:44.260Z,12.05
2022-09-14T22:24:14.956Z,12.52
2022-09-14T22:26:42.957Z,14.10
2022-09-14T22:29:10.725Z,18.45
2022-09-14T22:31:40.131Z,15.07
2022-09-14T22:34:08.523Z,15.13
2022-09-14T22:36:37.089Z,17.40
2022-09-14T22:39:05.159Z,17.35
2022-09-14T22:41:32.612Z,15.60
2022-09-14T22:44:00.749Z,12.15
2022-09-14T22:46:28.666Z,24.73
2022-09-14T22:48:56.201Z,12.60
2022-09-14T22:51:25.759Z,18.25
2022-09-14T22:53:53.538Z,16.83
2022-09-14T22:56:22.841Z,14.30
2022-09-14T22:58:50.642Z,16.30
2022-09-14T23:01:25.740Z,12.73
2022-09-14T23:04:07.501Z,18.25
2022-09-14T23:06:43.855Z,19.38
2022-09-14T23:09:17.530Z,23.60
2022-09-14T23:11:45.575Z,14.75
2022-09-14T23:14:14.221Z,11.50
2022-09-14T23:16:42.377Z,14.73
2022-09-14T23:19:14.695Z,13.88
2022-09-14T23:21:42.191Z,21.88
2022-09-14T23:24:11.112Z,14.40
2022-09-14T23:26:39.123Z,15.43
2022-09-14T23:29:09.273Z,16.75
2022-09-14T23:31:36.782Z,14.85
2022-09-14T23:34:05.214Z,13.82
2022-09-14T23:36:33.114Z,15.63
2022-09-14T23:39:00.455Z,12.30
2022-09-14T23:41:28.984Z,17.23
2022-09-14T23:43:56.244Z,15.95
2022-09-14T23:46:24.436Z,13.20
2022-09-14T23:48:52.098Z,13.68
2022-09-14T23:51:19.747Z,17.08
2022-09-14T23:53:47.469Z,17.08
2022-09-14T23:56:15.324Z,10.75
2022-09-14T23:58:43.535Z,15.23
